Archival Weather

Snohomish County (Paine Fld)

Everett, Washington (KPAE)

Report from: Friday, November 17, 2023 8:53 AM PST
Current time: Monday, June 24, 2024 3:14 AM PDT

Current weather – Weather history – Daily summaries
Weather forecast

Temperature3.9°C (39.0°F)
Wind chill2.0°C (35.6°F)
Dew point0.0°C (32.0°F)
Winds 4 kts (2.1 m/s, 4.6 mph) North (360°)
Visibility10 mi. (16.1 km)
Clouds Sky clear
Altimeter30.08 in.Hg (1019 mB)
Relative humidity76 %
Density altitude-1,448 ft. (-441 m)
Sea-level pressure101.9 kPa (1019 mB, 30.09 in.Hg)
Remarks Automated weather observing station with precipitation discriminator
Flight conditions Visual Meteorological Conditions
Raw dataKPAE 171653Z 36004KT 10SM CLR 04/00 A3008 RMK AO2 SLP190 T00390000
An error has occurred. This application may no longer respond until reloaded. Reload 🗙